sensor_id;sensor_type;location;lat;lon;timestamp;pressure;altitude;pressure_sealevel;temperature;humidity
54900;BME280;40801;41.924;25.562;2023-07-22T00:00:38;99306.28;;;27.03;54.66
54900;BME280;40801;41.924;25.562;2023-07-22T00:03:03;99308.34;;;26.99;54.56
54900;BME280;40801;41.924;25.562;2023-07-22T00:05:29;99306.06;;;26.91;54.88
54900;BME280;40801;41.924;25.562;2023-07-22T00:07:54;99313.94;;;26.92;54.68
54900;BME280;40801;41.924;25.562;2023-07-22T00:10:19;99310.88;;;26.83;54.91
54900;BME280;40801;41.924;25.562;2023-07-22T00:12:45;99309.63;;;26.88;54.43
54900;BME280;40801;41.924;25.562;2023-07-22T00:15:10;99307.66;;;26.88;54.24
54900;BME280;40801;41.924;25.562;2023-07-22T00:17:41;99306.91;;;26.84;54.11
54900;BME280;40801;41.924;25.562;2023-07-22T00:20:07;99302.28;;;26.77;54.23
54900;BME280;40801;41.924;25.562;2023-07-22T00:22:36;99295.22;;;26.73;54.04
54900;BME280;40801;41.924;25.562;2023-07-22T00:25:01;99286.94;;;26.73;54.03
54900;BME280;40801;41.924;25.562;2023-07-22T00:27:27;99289.28;;;26.74;54.35
54900;BME280;40801;41.924;25.562;2023-07-22T00:29:52;99290.09;;;26.71;54.25
54900;BME280;40801;41.924;25.562;2023-07-22T00:32:18;99296.91;;;26.67;54.44
54900;BME280;40801;41.924;25.562;2023-07-22T00:34:43;99291.38;;;26.67;54.63
54900;BME280;40801;41.924;25.562;2023-07-22T00:37:08;99283.91;;;26.64;54.93
54900;BME280;40801;41.924;25.562;2023-07-22T00:39:34;99275.97;;;26.66;54.63
54900;BME280;40801;41.924;25.562;2023-07-22T00:41:59;99278.72;;;26.66;54.66
54900;BME280;40801;41.924;25.562;2023-07-22T00:44:25;99275.66;;;26.60;54.96
54900;BME280;40801;41.924;25.562;2023-07-22T00:46:53;99284.75;;;26.57;55.32
54900;BME280;40801;41.924;25.562;2023-07-22T00:49:20;99288.41;;;26.50;55.50
54900;BME280;40801;41.924;25.562;2023-07-22T00:51:46;99283.31;;;26.45;55.66
54900;BME280;40801;41.924;25.562;2023-07-22T00:54:12;99286.94;;;26.42;55.82
54900;BME280;40801;41.924;25.562;2023-07-22T00:56:40;99286.19;;;26.38;56.04
54900;BME280;40801;41.924;25.562;2023-07-22T00:59:06;99282.63;;;26.38;55.80
54900;BME280;40801;41.924;25.562;2023-07-22T01:01:32;99290.97;;;26.34;56.34
54900;BME280;40801;41.924;25.562;2023-07-22T01:03:57;99292.16;;;26.33;56.05
54900;BME280;40801;41.924;25.562;2023-07-22T01:06:23;99292.28;;;26.19;56.39
54900;BME280;40801;41.924;25.562;2023-07-22T01:08:50;99299.72;;;26.25;56.32
54900;BME280;40801;41.924;25.562;2023-07-22T01:11:15;99289.06;;;26.24;56.41
54900;BME280;40801;41.924;25.562;2023-07-22T01:13:41;99292.63;;;26.24;56.32
54900;BME280;40801;41.924;25.562;2023-07-22T01:16:06;99287.50;;;26.23;56.32
54900;BME280;40801;41.924;25.562;2023-07-22T01:18:35;99285.94;;;26.22;56.29
54900;BME280;40801;41.924;25.562;2023-07-22T01:21:01;99280.22;;;26.06;57.58
54900;BME280;40801;41.924;25.562;2023-07-22T01:23:26;99283.72;;;26.10;56.32
54900;BME280;40801;41.924;25.562;2023-07-22T01:25:52;99291.28;;;26.06;56.63
54900;BME280;40801;41.924;25.562;2023-07-22T01:28:17;99292.47;;;26.01;56.58
54900;BME280;40801;41.924;25.562;2023-07-22T01:30:45;99287.78;;;25.98;56.62
54900;BME280;40801;41.924;25.562;2023-07-22T01:33:11;99302.38;;;26.02;56.40
54900;BME280;40801;41.924;25.562;2023-07-22T01:35:36;99297.22;;;26.01;56.45
54900;BME280;40801;41.924;25.562;2023-07-22T01:38:02;99303.53;;;26.01;56.23
54900;BME280;40801;41.924;25.562;2023-07-22T01:40:27;99304.31;;;26.02;56.27
54900;BME280;40801;41.924;25.562;2023-07-22T01:42:53;99311.44;;;25.99;56.30
54900;BME280;40801;41.924;25.562;2023-07-22T01:45:19;99304.72;;;26.00;56.19
54900;BME280;40801;41.924;25.562;2023-07-22T01:47:44;99316.19;;;25.99;56.20
54900;BME280;40801;41.924;25.562;2023-07-22T01:50:10;99312.28;;;25.96;56.16
54900;BME280;40801;41.924;25.562;2023-07-22T01:52:35;99309.19;;;25.90;56.63
54900;BME280;40801;41.924;25.562;2023-07-22T01:55:01;99315.16;;;25.85;56.79
54900;BME280;40801;41.924;25.562;2023-07-22T01:57:30;99310.84;;;25.81;56.66
54900;BME280;40801;41.924;25.562;2023-07-22T01:59:56;99310.44;;;25.82;56.99
54900;BME280;40801;41.924;25.562;2023-07-22T02:02:21;99308.47;;;25.83;56.73
54900;BME280;40801;41.924;25.562;2023-07-22T02:04:46;99309.28;;;25.80;56.67
54900;BME280;40801;41.924;25.562;2023-07-22T02:07:12;99317.19;;;25.78;57.09
54900;BME280;40801;41.924;25.562;2023-07-22T02:09:37;99310.16;;;25.70;57.50
54900;BME280;40801;41.924;25.562;2023-07-22T02:12:03;99307.00;;;25.68;57.32
54900;BME280;40801;41.924;25.562;2023-07-22T02:14:28;99312.56;;;25.60;57.53
54900;BME280;40801;41.924;25.562;2023-07-22T02:16:54;99305.88;;;25.58;57.74
54900;BME280;40801;41.924;25.562;2023-07-22T02:19:19;99302.72;;;25.59;57.19
54900;BME280;40801;41.924;25.562;2023-07-22T02:21:44;99302.31;;;25.61;56.97
54900;BME280;40801;41.924;25.562;2023-07-22T02:24:10;99307.09;;;25.57;57.13
54900;BME280;40801;41.924;25.562;2023-07-22T02:26:36;99313.00;;;25.55;57.30
54900;BME280;40801;41.924;25.562;2023-07-22T02:29:01;99318.94;;;25.54;57.73
54900;BME280;40801;41.924;25.562;2023-07-22T02:31:27;99337.13;;;25.51;57.79
54900;BME280;40801;41.924;25.562;2023-07-22T02:33:53;99357.63;;;25.50;57.79
54900;BME280;40801;41.924;25.562;2023-07-22T02:36:18;99361.63;;;25.42;58.11
54900;BME280;40801;41.924;25.562;2023-07-22T02:38:44;99376.63;;;25.41;58.09
54900;BME280;40801;41.924;25.562;2023-07-22T02:41:09;99363.19;;;25.43;58.25
54900;BME280;40801;41.924;25.562;2023-07-22T02:43:35;99373.44;;;25.43;58.42
54900;BME280;40801;41.924;25.562;2023-07-22T02:46:01;99379.78;;;25.40;58.73
54900;BME280;40801;41.924;25.562;2023-07-22T02:48:28;99369.22;;;25.27;59.19
54900;BME280;40801;41.924;25.562;2023-07-22T02:50:53;99356.13;;;25.39;58.67
54900;BME280;40801;41.924;25.562;2023-07-22T02:53:19;99352.97;;;25.37;58.69
54900;BME280;40801;41.924;25.562;2023-07-22T02:55:44;99336.06;;;25.31;58.67
54900;BME280;40801;41.924;25.562;2023-07-22T02:58:11;99340.06;;;25.26;58.88
54900;BME280;40801;41.924;25.562;2023-07-22T03:00:37;99342.44;;;25.24;59.15
54900;BME280;40801;41.924;25.562;2023-07-22T03:03:02;99340.50;;;25.14;59.82
54900;BME280;40801;41.924;25.562;2023-07-22T03:05:31;99352.81;;;25.02;60.66
54900;BME280;40801;41.924;25.562;2023-07-22T03:07:58;99353.19;;;24.97;61.10
54900;BME280;40801;41.924;25.562;2023-07-22T03:10:24;99361.13;;;24.85;61.47
54900;BME280;40801;41.924;25.562;2023-07-22T03:12:51;99368.22;;;24.86;61.68
54900;BME280;40801;41.924;25.562;2023-07-22T03:15:23;99375.78;;;24.71;62.46
54900;BME280;40801;41.924;25.562;2023-07-22T03:17:51;99378.59;;;24.60;62.70
54900;BME280;40801;41.924;25.562;2023-07-22T03:20:17;99371.47;;;24.66;62.06
54900;BME280;40801;41.924;25.562;2023-07-22T03:22:44;99380.16;;;24.61;62.88
54900;BME280;40801;41.924;25.562;2023-07-22T03:25:10;99382.47;;;24.70;62.08
54900;BME280;40801;41.924;25.562;2023-07-22T03:27:36;99384.06;;;24.71;62.36
54900;BME280;40801;41.924;25.562;2023-07-22T03:30:03;99380.09;;;24.72;62.47
54900;BME280;40801;41.924;25.562;2023-07-22T03:32:29;99379.28;;;24.82;62.14
54900;BME280;40801;41.924;25.562;2023-07-22T03:34:54;99365.44;;;24.93;61.51
54900;BME280;40801;41.924;25.562;2023-07-22T03:37:19;99378.84;;;24.91;62.24
54900;BME280;40801;41.924;25.562;2023-07-22T03:39:46;99375.69;;;24.99;62.12
54900;BME280;40801;41.924;25.562;2023-07-22T03:42:11;99373.31;;;24.98;62.68
54900;BME280;40801;41.924;25.562;2023-07-22T03:44:37;99371.69;;;25.08;62.12
54900;BME280;40801;41.924;25.562;2023-07-22T03:47:02;99357.47;;;25.16;61.57
54900;BME280;40801;41.924;25.562;2023-07-22T03:49:28;99350.34;;;25.22;61.24
54900;BME280;40801;41.924;25.562;2023-07-22T03:51:53;99347.97;;;25.21;61.34
54900;BME280;40801;41.924;25.562;2023-07-22T03:54:18;99362.19;;;25.19;61.78
54900;BME280;40801;41.924;25.562;2023-07-22T03:56:44;99341.69;;;25.17;62.33
54900;BME280;40801;41.924;25.562;2023-07-22T03:59:09;99357.47;;;25.16;62.72
54900;BME280;40801;41.924;25.562;2023-07-22T04:01:35;99367.75;;;25.09;62.83
54900;BME280;40801;41.924;25.562;2023-07-22T04:04:00;99376.47;;;24.93;63.65
54900;BME280;40801;41.924;25.562;2023-07-22T04:06:25;99370.94;;;24.96;63.45
54900;BME280;40801;41.924;25.562;2023-07-22T04:08:51;99376.06;;;25.01;63.18
54900;BME280;40801;41.924;25.562;2023-07-22T04:11:17;99368.56;;;25.02;63.24
54900;BME280;40801;41.924;25.562;2023-07-22T04:13:42;99377.63;;;25.02;63.32
54900;BME280;40801;41.924;25.562;2023-07-22T04:16:07;99383.50;;;25.08;63.13
54900;BME280;40801;41.924;25.562;2023-07-22T04:18:33;99384.28;;;25.12;63.44
54900;BME280;40801;41.924;25.562;2023-07-22T04:21:00;99385.38;;;25.29;62.76
54900;BME280;40801;41.924;25.562;2023-07-22T04:23:25;99392.00;;;25.46;62.33
54900;BME280;40801;41.924;25.562;2023-07-22T04:25:51;99391.13;;;25.56;62.10
54900;BME280;40801;41.924;25.562;2023-07-22T04:28:17;99381.59;;;25.64;61.75
54900;BME280;40801;41.924;25.562;2023-07-22T04:30:42;99386.72;;;25.66;62.23
54900;BME280;40801;41.924;25.562;2023-07-22T04:33:08;99381.56;;;25.75;62.25
54900;BME280;40801;41.924;25.562;2023-07-22T04:35:42;99386.69;;;25.73;62.53
54900;BME280;40801;41.924;25.562;2023-07-22T04:38:07;99390.59;;;25.79;62.71
54900;BME280;40801;41.924;25.562;2023-07-22T04:40:33;99380.69;;;25.85;62.28
54900;BME280;40801;41.924;25.562;2023-07-22T04:42:58;99386.16;;;25.88;62.31
54900;BME280;40801;41.924;25.562;2023-07-22T04:45:23;99382.84;;;26.08;61.83
54900;BME280;40801;41.924;25.562;2023-07-22T04:47:50;99393.00;;;26.18;61.44
54900;BME280;40801;41.924;25.562;2023-07-22T04:50:16;99378.69;;;26.27;61.22
54900;BME280;40801;41.924;25.562;2023-07-22T04:52:44;99388.13;;;26.33;61.27
54900;BME280;40801;41.924;25.562;2023-07-22T04:55:10;99388.91;;;26.33;61.40
54900;BME280;40801;41.924;25.562;2023-07-22T04:57:36;99387.53;;;26.52;60.66
54900;BME280;40801;41.924;25.562;2023-07-22T05:00:02;99391.44;;;26.58;60.78
54900;BME280;40801;41.924;25.562;2023-07-22T05:02:32;99396.53;;;26.60;61.05
54900;BME280;40801;41.924;25.562;2023-07-22T05:04:57;99399.13;;;26.77;60.76
54900;BME280;40801;41.924;25.562;2023-07-22T05:07:23;99401.34;;;26.90;60.35
54900;BME280;40801;41.924;25.562;2023-07-22T05:09:49;99392.00;;;27.10;59.65
54900;BME280;40801;41.924;25.562;2023-07-22T05:12:15;99387.97;;;27.15;60.16
54900;BME280;40801;41.924;25.562;2023-07-22T05:14:40;99387.84;;;27.26;59.71
54900;BME280;40801;41.924;25.562;2023-07-22T05:17:05;99390.94;;;27.31;59.70
54900;BME280;40801;41.924;25.562;2023-07-22T05:19:31;99394.59;;;27.25;59.44
54900;BME280;40801;41.924;25.562;2023-07-22T05:21:56;99399.44;;;27.44;58.96
54900;BME280;40801;41.924;25.562;2023-07-22T05:24:22;99401.34;;;27.51;58.38
54900;BME280;40801;41.924;25.562;2023-07-22T05:26:47;99401.47;;;27.40;58.87
54900;BME280;40801;41.924;25.562;2023-07-22T05:29:13;99397.16;;;27.39;58.72
54900;BME280;40801;41.924;25.562;2023-07-22T05:31:38;99403.00;;;27.44;59.19
54900;BME280;40801;41.924;25.562;2023-07-22T05:34:04;99394.28;;;27.46;59.05
54900;BME280;40801;41.924;25.562;2023-07-22T05:36:29;99396.03;;;27.63;58.85
54900;BME280;40801;41.924;25.562;2023-07-22T05:38:55;99399.38;;;27.78;58.61
54900;BME280;40801;41.924;25.562;2023-07-22T05:41:20;99399.53;;;27.91;58.33
54900;BME280;40801;41.924;25.562;2023-07-22T05:43:46;99399.06;;;27.96;58.52
54900;BME280;40801;41.924;25.562;2023-07-22T05:46:11;99402.47;;;28.07;58.51
54900;BME280;40801;41.924;25.562;2023-07-22T05:48:37;99401.78;;;28.23;58.18
54900;BME280;40801;41.924;25.562;2023-07-22T05:51:02;99403.13;;;28.38;57.57
54900;BME280;40801;41.924;25.562;2023-07-22T05:53:28;99391.88;;;28.45;57.84
54900;BME280;40801;41.924;25.562;2023-07-22T05:55:53;99376.59;;;28.57;57.26
54900;BME280;40801;41.924;25.562;2023-07-22T05:58:19;99381.00;;;28.54;56.94
54900;BME280;40801;41.924;25.562;2023-07-22T06:00:45;99389.84;;;28.69;57.05
54900;BME280;40801;41.924;25.562;2023-07-22T06:03:11;99389.59;;;28.80;56.23
54900;BME280;40801;41.924;25.562;2023-07-22T06:05:36;99386.94;;;28.96;55.88
54900;BME280;40801;41.924;25.562;2023-07-22T06:08:02;99394.59;;;29.08;55.33
54900;BME280;40801;41.924;25.562;2023-07-22T06:10:28;99391.56;;;29.19;55.39
54900;BME280;40801;41.924;25.562;2023-07-22T06:12:54;99382.75;;;29.24;55.32
54900;BME280;40801;41.924;25.562;2023-07-22T06:15:20;99388.06;;;29.35;54.73
54900;BME280;40801;41.924;25.562;2023-07-22T06:17:45;99383.41;;;29.48;54.49
54900;BME280;40801;41.924;25.562;2023-07-22T06:20:11;99388.81;;;29.55;54.27
54900;BME280;40801;41.924;25.562;2023-07-22T06:22:37;99384.91;;;29.69;54.23
54900;BME280;40801;41.924;25.562;2023-07-22T06:25:03;99385.09;;;29.62;54.41
54900;BME280;40801;41.924;25.562;2023-07-22T06:27:28;99391.78;;;29.64;53.95
54900;BME280;40801;41.924;25.562;2023-07-22T06:29:54;99389.06;;;29.77;53.38
54900;BME280;40801;41.924;25.562;2023-07-22T06:32:20;99388.38;;;29.73;52.99
54900;BME280;40801;41.924;25.562;2023-07-22T06:34:45;99399.50;;;29.56;53.54
54900;BME280;40801;41.924;25.562;2023-07-22T06:37:11;99391.78;;;29.80;53.22
54900;BME280;40801;41.924;25.562;2023-07-22T06:39:36;99398.97;;;29.94;53.18
54900;BME280;40801;41.924;25.562;2023-07-22T06:42:01;99397.34;;;30.13;52.10
54900;BME280;40801;41.924;25.562;2023-07-22T06:44:27;99401.41;;;30.25;51.60
54900;BME280;40801;41.924;25.562;2023-07-22T06:46:53;99380.56;;;30.16;51.81
54900;BME280;40801;41.924;25.562;2023-07-22T06:49:18;99393.38;;;30.43;50.84
54900;BME280;40801;41.924;25.562;2023-07-22T06:51:43;99396.31;;;30.36;50.91
54900;BME280;40801;41.924;25.562;2023-07-22T06:54:09;99387.91;;;30.39;51.14
54900;BME280;40801;41.924;25.562;2023-07-22T06:56:34;99401.06;;;30.68;50.90
54900;BME280;40801;41.924;25.562;2023-07-22T06:58:59;99397.22;;;30.91;50.21
54900;BME280;40801;41.924;25.562;2023-07-22T07:01:25;99390.13;;;31.02;49.45
54900;BME280;40801;41.924;25.562;2023-07-22T07:03:50;99387.63;;;31.33;49.11
54900;BME280;40801;41.924;25.562;2023-07-22T07:06:16;99393.09;;;31.24;49.16
54900;BME280;40801;41.924;25.562;2023-07-22T07:08:41;99389.50;;;31.36;48.52
54900;BME280;40801;41.924;25.562;2023-07-22T07:11:06;99394.97;;;31.53;47.77
54900;BME280;40801;41.924;25.562;2023-07-22T07:13:32;99395.75;;;31.66;47.35
54900;BME280;40801;41.924;25.562;2023-07-22T07:16:24;99401.31;;;31.66;47.14
54900;BME280;40801;41.924;25.562;2023-07-22T07:18:51;99403.44;;;31.74;47.15
54900;BME280;40801;41.924;25.562;2023-07-22T07:21:17;99405.66;;;31.80;46.86
54900;BME280;40801;41.924;25.562;2023-07-22T07:23:43;99399.63;;;31.94;47.02
54900;BME280;40801;41.924;25.562;2023-07-22T07:26:09;99397.59;;;32.07;46.50
54900;BME280;40801;41.924;25.562;2023-07-22T07:28:34;99408.50;;;32.27;45.91
54900;BME280;40801;41.924;25.562;2023-07-22T07:30:59;99404.78;;;32.43;46.01
54900;BME280;40801;41.924;25.562;2023-07-22T07:33:25;99403.03;;;32.58;45.23
54900;BME280;40801;41.924;25.562;2023-07-22T07:35:51;99404.81;;;32.30;45.58
54900;BME280;40801;41.924;25.562;2023-07-22T07:38:16;99408.34;;;32.65;44.73
54900;BME280;40801;41.924;25.562;2023-07-22T07:40:41;99413.03;;;32.90;43.60
54900;BME280;40801;41.924;25.562;2023-07-22T07:43:07;99417.81;;;32.80;43.39
54900;BME280;40801;41.924;25.562;2023-07-22T07:45:32;99412.53;;;32.82;44.38
54900;BME280;40801;41.924;25.562;2023-07-22T07:47:58;99416.03;;;32.95;43.78
54900;BME280;40801;41.924;25.562;2023-07-22T07:50:23;99411.59;;;33.07;43.35
54900;BME280;40801;41.924;25.562;2023-07-22T07:52:48;99414.31;;;33.20;43.29
54900;BME280;40801;41.924;25.562;2023-07-22T07:55:33;99418.00;;;33.17;42.70
54900;BME280;40801;41.924;25.562;2023-07-22T07:57:58;99410.13;;;33.24;42.73
54900;BME280;40801;41.924;25.562;2023-07-22T08:00:24;99406.19;;;33.35;42.68
54900;BME280;40801;41.924;25.562;2023-07-22T08:02:49;99412.91;;;33.46;42.14
54900;BME280;40801;41.924;25.562;2023-07-22T08:05:15;99412.34;;;33.61;42.45
54900;BME280;40801;41.924;25.562;2023-07-22T08:07:41;99407.25;;;33.77;42.01
54900;BME280;40801;41.924;25.562;2023-07-22T08:10:07;99403.00;;;34.04;41.93
54900;BME280;40801;41.924;25.562;2023-07-22T08:12:33;99399.75;;;34.24;40.84
54900;BME280;40801;41.924;25.562;2023-07-22T08:14:59;99390.31;;;34.48;40.22
54900;BME280;40801;41.924;25.562;2023-07-22T08:17:24;99396.81;;;34.64;39.33
54900;BME280;40801;41.924;25.562;2023-07-22T08:19:49;99391.22;;;34.73;39.02
54900;BME280;40801;41.924;25.562;2023-07-22T08:22:15;99393.47;;;35.11;38.46
54900;BME280;40801;41.924;25.562;2023-07-22T08:24:40;99389.28;;;35.06;38.40
54900;BME280;40801;41.924;25.562;2023-07-22T08:27:06;99390.72;;;35.44;38.53
54900;BME280;40801;41.924;25.562;2023-07-22T08:29:32;99388.16;;;35.64;38.26
54900;BME280;40801;41.924;25.562;2023-07-22T08:31:58;99378.16;;;35.96;37.30
54900;BME280;40801;41.924;25.562;2023-07-22T08:34:23;99381.31;;;36.52;36.94
54900;BME280;40801;41.924;25.562;2023-07-22T08:36:49;99387.88;;;37.02;36.06
54900;BME280;40801;41.924;25.562;2023-07-22T08:39:14;99394.00;;;37.30;34.94
54900;BME280;40801;41.924;25.562;2023-07-22T08:41:40;99397.16;;;37.23;34.63
54900;BME280;40801;41.924;25.562;2023-07-22T08:44:07;99391.38;;;37.62;33.28
54900;BME280;40801;41.924;25.562;2023-07-22T08:46:33;99393.56;;;37.37;33.89
54900;BME280;40801;41.924;25.562;2023-07-22T08:49:00;99386.72;;;37.73;33.07
54900;BME280;40801;41.924;25.562;2023-07-22T08:51:26;99380.09;;;37.97;32.59
54900;BME280;40801;41.924;25.562;2023-07-22T08:53:54;99380.31;;;38.34;32.61
54900;BME280;40801;41.924;25.562;2023-07-22T08:56:24;99373.84;;;38.28;32.71
54900;BME280;40801;41.924;25.562;2023-07-22T08:58:51;99369.66;;;38.64;32.86
54900;BME280;40801;41.924;25.562;2023-07-22T09:01:17;99357.75;;;38.80;32.45
54900;BME280;40801;41.924;25.562;2023-07-22T09:03:42;99363.38;;;39.38;31.63
54900;BME280;40801;41.924;25.562;2023-07-22T09:06:08;99358.19;;;39.73;31.27
54900;BME280;40801;41.924;25.562;2023-07-22T09:08:33;99353.47;;;39.96;31.10
54900;BME280;40801;41.924;25.562;2023-07-22T09:10:59;99356.06;;;40.05;30.89
54900;BME280;40801;41.924;25.562;2023-07-22T09:13:26;99351.91;;;39.95;31.00
54900;BME280;40801;41.924;25.562;2023-07-22T09:15:52;99344.75;;;40.11;30.26
54900;BME280;40801;41.924;25.562;2023-07-22T09:18:18;99339.00;;;40.59;30.06
54900;BME280;40801;41.924;25.562;2023-07-22T09:20:43;99345.22;;;40.85;29.39
54900;BME280;40801;41.924;25.562;2023-07-22T09:23:09;99344.94;;;40.78;29.35
54900;BME280;40801;41.924;25.562;2023-07-22T09:25:35;99346.47;;;41.01;28.64
54900;BME280;40801;41.924;25.562;2023-07-22T09:28:01;99343.41;;;41.10;28.64
54900;BME280;40801;41.924;25.562;2023-07-22T09:30:37;99342.34;;;41.41;28.05
54900;BME280;40801;41.924;25.562;2023-07-22T09:33:08;99341.84;;;41.04;28.55
54900;BME280;40801;41.924;25.562;2023-07-22T09:35:46;99334.13;;;41.04;28.78
54900;BME280;40801;41.924;25.562;2023-07-22T09:38:30;99339.28;;;41.28;28.34
54900;BME280;40801;41.924;25.562;2023-07-22T09:40:55;99332.50;;;41.59;27.85
54900;BME280;40801;41.924;25.562;2023-07-22T09:43:23;99336.38;;;41.67;27.47
54900;BME280;40801;41.924;25.562;2023-07-22T09:45:48;99331.78;;;41.64;27.94
54900;BME280;40801;41.924;25.562;2023-07-22T09:48:14;99330.31;;;41.99;27.23
54900;BME280;40801;41.924;25.562;2023-07-22T09:50:40;99329.44;;;42.21;27.25
54900;BME280;40801;41.924;25.562;2023-07-22T09:53:06;99324.16;;;42.42;26.71
54900;BME280;40801;41.924;25.562;2023-07-22T09:55:32;99314.38;;;42.78;26.05
54900;BME280;40801;41.924;25.562;2023-07-22T09:58:03;99314.88;;;42.82;25.67
54900;BME280;40801;41.924;25.562;2023-07-22T10:00:34;99316.84;;;42.93;24.90
54900;BME280;40801;41.924;25.562;2023-07-22T10:03:02;99311.28;;;42.76;25.33
54900;BME280;40801;41.924;25.562;2023-07-22T10:05:30;99310.09;;;42.66;25.66
54900;BME280;40801;41.924;25.562;2023-07-22T10:07:58;99305.53;;;42.57;25.19
54900;BME280;40801;41.924;25.562;2023-07-22T10:10:34;99298.66;;;42.42;25.73
54900;BME280;40801;41.924;25.562;2023-07-22T10:13:00;99292.59;;;42.62;25.47
54900;BME280;40801;41.924;25.562;2023-07-22T10:15:29;99291.63;;;42.89;25.40
54900;BME280;40801;41.924;25.562;2023-07-22T10:17:56;99277.13;;;42.93;24.87
54900;BME280;40801;41.924;25.562;2023-07-22T10:20:23;99278.06;;;43.25;25.40
54900;BME280;40801;41.924;25.562;2023-07-22T10:22:50;99271.59;;;43.31;24.71
54900;BME280;40801;41.924;25.562;2023-07-22T10:25:19;99269.34;;;43.48;24.38
54900;BME280;40801;41.924;25.562;2023-07-22T10:27:46;99269.38;;;42.93;24.81
54900;BME280;40801;41.924;25.562;2023-07-22T10:30:13;99249.22;;;43.46;24.73
54900;BME280;40801;41.924;25.562;2023-07-22T10:32:49;99262.88;;;43.47;24.75
54900;BME280;40801;41.924;25.562;2023-07-22T10:35:37;99248.97;;;43.68;25.19
54900;BME280;40801;41.924;25.562;2023-07-22T10:38:14;99245.75;;;43.96;24.87
54900;BME280;40801;41.924;25.562;2023-07-22T10:43:11;99246.75;;;44.49;23.63
54900;BME280;40801;41.924;25.562;2023-07-22T10:45:42;99242.44;;;44.43;24.09
54900;BME280;40801;41.924;25.562;2023-07-22T10:48:09;99233.75;;;44.54;23.84
54900;BME280;40801;41.924;25.562;2023-07-22T10:50:42;99230.72;;;44.78;23.20
54900;BME280;40801;41.924;25.562;2023-07-22T11:14:46;99214.47;;;45.45;22.00
54900;BME280;40801;41.924;25.562;2023-07-22T11:17:11;99209.16;;;45.62;22.00
54900;BME280;40801;41.924;25.562;2023-07-22T11:19:37;99217.84;;;46.04;21.54
54900;BME280;40801;41.924;25.562;2023-07-22T11:22:04;99207.31;;;45.99;21.70
54900;BME280;40801;41.924;25.562;2023-07-22T11:24:32;99206.22;;;46.23;21.20
54900;BME280;40801;41.924;25.562;2023-07-22T11:26:58;99202.25;;;46.26;20.35
54900;BME280;40801;41.924;25.562;2023-07-22T11:29:23;99202.69;;;45.96;20.41
54900;BME280;40801;41.924;25.562;2023-07-22T11:31:49;99199.28;;;45.77;20.69
54900;BME280;40801;41.924;25.562;2023-07-22T11:34:17;99200.94;;;45.59;20.66
54900;BME280;40801;41.924;25.562;2023-07-22T11:36:42;99204.59;;;45.46;20.65
54900;BME280;40801;41.924;25.562;2023-07-22T11:39:11;99198.97;;;45.54;20.99
54900;BME280;40801;41.924;25.562;2023-07-22T11:41:37;99196.50;;;45.84;20.24
54900;BME280;40801;41.924;25.562;2023-07-22T11:44:04;99199.06;;;46.09;19.47
54900;BME280;40801;41.924;25.562;2023-07-22T11:46:35;99195.88;;;46.12;19.57
54900;BME280;40801;41.924;25.562;2023-07-22T11:49:01;99190.97;;;46.20;18.86
54900;BME280;40801;41.924;25.562;2023-07-22T11:51:27;99197.34;;;45.92;19.41
54900;BME280;40801;41.924;25.562;2023-07-22T11:53:54;99194.78;;;45.68;20.01
54900;BME280;40801;41.924;25.562;2023-07-22T11:56:25;99186.94;;;45.48;20.39
54900;BME280;40801;41.924;25.562;2023-07-22T11:58:53;99183.22;;;45.87;19.90
54900;BME280;40801;41.924;25.562;2023-07-22T12:01:19;99180.63;;;45.28;20.64
54900;BME280;40801;41.924;25.562;2023-07-22T12:03:44;99179.13;;;45.95;19.71
54900;BME280;40801;41.924;25.562;2023-07-22T12:06:10;99171.88;;;46.08;19.80
54900;BME280;40801;41.924;25.562;2023-07-22T12:08:37;99177.97;;;46.53;19.46
54900;BME280;40801;41.924;25.562;2023-07-22T12:11:07;99180.06;;;46.32;19.53
54900;BME280;40801;41.924;25.562;2023-07-22T12:13:37;99174.88;;;46.72;19.03
54900;BME280;40801;41.924;25.562;2023-07-22T12:16:04;99164.22;;;46.73;18.97
54900;BME280;40801;41.924;25.562;2023-07-22T12:18:45;99161.16;;;46.71;18.78
54900;BME280;40801;41.924;25.562;2023-07-22T12:21:12;99153.81;;;46.54;19.13
54900;BME280;40801;41.924;25.562;2023-07-22T12:23:37;99153.00;;;46.25;19.46
54900;BME280;40801;41.924;25.562;2023-07-22T12:26:06;99141.72;;;46.62;19.54
54900;BME280;40801;41.924;25.562;2023-07-22T12:28:32;99144.03;;;46.71;19.80
54900;BME280;40801;41.924;25.562;2023-07-22T12:30:58;99152.00;;;47.22;19.32
54900;BME280;40801;41.924;25.562;2023-07-22T12:33:24;99140.59;;;47.29;18.95
54900;BME280;40801;41.924;25.562;2023-07-22T12:35:50;99125.03;;;47.45;19.21
54900;BME280;40801;41.924;25.562;2023-07-22T12:38:16;99136.47;;;47.45;18.65
54900;BME280;40801;41.924;25.562;2023-07-22T12:40:41;99126.34;;;46.72;19.29
54900;BME280;40801;41.924;25.562;2023-07-22T12:43:07;99121.91;;;47.20;18.47
54900;BME280;40801;41.924;25.562;2023-07-22T12:45:33;99118.13;;;47.33;18.51
54900;BME280;40801;41.924;25.562;2023-07-22T12:47:58;99110.28;;;47.18;18.84
54900;BME280;40801;41.924;25.562;2023-07-22T12:50:24;99113.25;;;47.57;17.96
54900;BME280;40801;41.924;25.562;2023-07-22T12:52:49;99110.91;;;47.40;17.49
54900;BME280;40801;41.924;25.562;2023-07-22T12:55:15;99109.25;;;47.52;17.69
54900;BME280;40801;41.924;25.562;2023-07-22T12:57:40;99104.91;;;47.74;17.56
54900;BME280;40801;41.924;25.562;2023-07-22T13:00:06;99096.13;;;47.64;17.47
54900;BME280;40801;41.924;25.562;2023-07-22T13:02:35;99091.97;;;47.14;17.80
54900;BME280;40801;41.924;25.562;2023-07-22T13:05:00;99093.91;;;47.27;17.54
54900;BME280;40801;41.924;25.562;2023-07-22T13:07:26;99096.94;;;47.21;18.02
54900;BME280;40801;41.924;25.562;2023-07-22T13:09:51;99098.09;;;47.26;17.26